sensor_id;sensor_type;location;lat;lon;timestamp;P1;durP1;ratioP1;P2;durP2;ratioP2
35114;SDS011;21292;52.416;13.046;2022-12-31T00:02:07;1.33;;;1.23;;
35114;SDS011;21292;52.416;13.046;2022-12-31T00:04:35;1.15;;;1.00;;
35114;SDS011;21292;52.416;13.046;2022-12-31T00:07:03;1.02;;;0.93;;
35114;SDS011;21292;52.416;13.046;2022-12-31T00:09:32;1.30;;;0.90;;
35114;SDS011;21292;52.416;13.046;2022-12-31T00:12:00;1.10;;;0.90;;
35114;SDS011;21292;52.416;13.046;2022-12-31T00:14:28;2.03;;;0.88;;
35114;SDS011;21292;52.416;13.046;2022-12-31T00:16:56;0.90;;;0.90;;
35114;SDS011;21292;52.416;13.046;2022-12-31T00:19:24;2.20;;;1.38;;
35114;SDS011;21292;52.416;13.046;2022-12-31T00:21:52;1.48;;;1.00;;
35114;SDS011;21292;52.416;13.046;2022-12-31T00:24:20;0.90;;;0.80;;
35114;SDS011;21292;52.416;13.046;2022-12-31T00:26:50;2.03;;;1.13;;
35114;SDS011;21292;52.416;13.046;2022-12-31T00:29:18;0.70;;;0.70;;
35114;SDS011;21292;52.416;13.046;2022-12-31T00:31:46;1.20;;;0.82;;
35114;SDS011;21292;52.416;13.046;2022-12-31T00:34:14;0.90;;;0.80;;
35114;SDS011;21292;52.416;13.046;2022-12-31T00:36:42;1.65;;;0.90;;
35114;SDS011;21292;52.416;13.046;2022-12-31T00:39:11;1.00;;;0.73;;
35114;SDS011;21292;52.416;13.046;2022-12-31T00:41:39;0.77;;;0.65;;
35114;SDS011;21292;52.416;13.046;2022-12-31T00:44:11;0.70;;;0.70;;
35114;SDS011;21292;52.416;13.046;2022-12-31T00:46:39;0.60;;;0.60;;
35114;SDS011;21292;52.416;13.046;2022-12-31T00:49:06;0.93;;;0.90;;
35114;SDS011;21292;52.416;13.046;2022-12-31T00:51:34;1.38;;;0.60;;
35114;SDS011;21292;52.416;13.046;2022-12-31T00:54:02;0.70;;;0.70;;
35114;SDS011;21292;52.416;13.046;2022-12-31T00:56:30;0.60;;;0.60;;
35114;SDS011;21292;52.416;13.046;2022-12-31T00:58:59;1.83;;;0.95;;
35114;SDS011;21292;52.416;13.046;2022-12-31T01:01:29;0.68;;;0.57;;
35114;SDS011;21292;52.416;13.046;2022-12-31T01:03:58;0.52;;;0.52;;
35114;SDS011;21292;52.416;13.046;2022-12-31T01:06:28;0.43;;;0.43;;
35114;SDS011;21292;52.416;13.046;2022-12-31T01:08:56;0.40;;;0.40;;
35114;SDS011;21292;52.416;13.046;2022-12-31T01:11:25;0.60;;;0.50;;
35114;SDS011;21292;52.416;13.046;2022-12-31T01:13:55;0.73;;;0.60;;
35114;SDS011;21292;52.416;13.046;2022-12-31T01:16:25;0.60;;;0.60;;
35114;SDS011;21292;52.416;13.046;2022-12-31T01:18:57;0.40;;;0.40;;
35114;SDS011;21292;52.416;13.046;2022-12-31T01:21:26;0.73;;;0.50;;
35114;SDS011;21292;52.416;13.046;2022-12-31T01:23:54;0.85;;;0.60;;
35114;SDS011;21292;52.416;13.046;2022-12-31T01:26:22;0.50;;;0.50;;
35114;SDS011;21292;52.416;13.046;2022-12-31T01:28:50;0.40;;;0.40;;
35114;SDS011;21292;52.416;13.046;2022-12-31T01:31:19;0.57;;;0.57;;
35114;SDS011;21292;52.416;13.046;2022-12-31T01:33:47;0.55;;;0.55;;
35114;SDS011;21292;52.416;13.046;2022-12-31T01:36:19;0.95;;;0.60;;
35114;SDS011;21292;52.416;13.046;2022-12-31T01:38:52;0.40;;;0.40;;
35114;SDS011;21292;52.416;13.046;2022-12-31T01:41:21;1.33;;;0.73;;
35114;SDS011;21292;52.416;13.046;2022-12-31T01:43:51;1.45;;;0.70;;
35114;SDS011;21292;52.416;13.046;2022-12-31T01:46:23;0.60;;;0.60;;
35114;SDS011;21292;52.416;13.046;2022-12-31T01:48:54;0.40;;;0.40;;
35114;SDS011;21292;52.416;13.046;2022-12-31T01:53:55;1.50;;;0.50;;
35114;SDS011;21292;52.416;13.046;2022-12-31T01:56:23;0.82;;;0.40;;
35114;SDS011;21292;52.416;13.046;2022-12-31T01:58:52;0.40;;;0.40;;
35114;SDS011;21292;52.416;13.046;2022-12-31T02:01:23;0.40;;;0.40;;
35114;SDS011;21292;52.416;13.046;2022-12-31T02:03:53;0.55;;;0.50;;
35114;SDS011;21292;52.416;13.046;2022-12-31T02:06:23;0.40;;;0.40;;
35114;SDS011;21292;52.416;13.046;2022-12-31T02:08:54;1.73;;;0.47;;
35114;SDS011;21292;52.416;13.046;2022-12-31T02:11:24;0.40;;;0.40;;
35114;SDS011;21292;52.416;13.046;2022-12-31T02:13:54;1.95;;;0.50;;
35114;SDS011;21292;52.416;13.046;2022-12-31T02:16:26;0.55;;;0.52;;
35114;SDS011;21292;52.416;13.046;2022-12-31T02:18:58;0.90;;;0.40;;
35114;SDS011;21292;52.416;13.046;2022-12-31T02:24:25;0.40;;;0.40;;
35114;SDS011;21292;52.416;13.046;2022-12-31T02:27:32;0.85;;;0.50;;
35114;SDS011;21292;52.416;13.046;2022-12-31T02:30:10;0.30;;;0.30;;
35114;SDS011;21292;52.416;13.046;2022-12-31T02:32:46;0.80;;;0.40;;
35114;SDS011;21292;52.416;13.046;2022-12-31T02:35:37;1.70;;;0.50;;
35114;SDS011;21292;52.416;13.046;2022-12-31T02:38:11;0.40;;;0.40;;
35114;SDS011;21292;52.416;13.046;2022-12-31T02:40:41;0.55;;;0.45;;
35114;SDS011;21292;52.416;13.046;2022-12-31T02:43:10;0.47;;;0.47;;
35114;SDS011;21292;52.416;13.046;2022-12-31T02:45:40;1.83;;;0.60;;
35114;SDS011;21292;52.416;13.046;2022-12-31T02:48:19;0.38;;;0.38;;
35114;SDS011;21292;52.416;13.046;2022-12-31T02:50:54;0.60;;;0.38;;
35114;SDS011;21292;52.416;13.046;2022-12-31T02:53:29;1.10;;;0.40;;
35114;SDS011;21292;52.416;13.046;2022-12-31T02:56:08;0.40;;;0.40;;
35114;SDS011;21292;52.416;13.046;2022-12-31T02:58:41;2.30;;;0.40;;
35114;SDS011;21292;52.416;13.046;2022-12-31T03:01:34;2.03;;;0.55;;
35114;SDS011;21292;52.416;13.046;2022-12-31T03:04:21;0.40;;;0.40;;
35114;SDS011;21292;52.416;13.046;2022-12-31T03:07:00;0.40;;;0.40;;
35114;SDS011;21292;52.416;13.046;2022-12-31T03:09:29;0.50;;;0.50;;
35114;SDS011;21292;52.416;13.046;2022-12-31T03:11:57;0.35;;;0.35;;
35114;SDS011;21292;52.416;13.046;2022-12-31T03:14:43;1.60;;;0.45;;
35114;SDS011;21292;52.416;13.046;2022-12-31T03:17:13;0.50;;;0.50;;
35114;SDS011;21292;52.416;13.046;2022-12-31T03:19:41;0.40;;;0.40;;
35114;SDS011;21292;52.416;13.046;2022-12-31T03:22:27;0.55;;;0.40;;
35114;SDS011;21292;52.416;13.046;2022-12-31T03:24:56;0.45;;;0.45;;
35114;SDS011;21292;52.416;13.046;2022-12-31T03:27:43;0.25;;;0.25;;
35114;SDS011;21292;52.416;13.046;2022-12-31T03:30:12;0.40;;;0.40;;
35114;SDS011;21292;52.416;13.046;2022-12-31T03:32:42;0.77;;;0.77;;
35114;SDS011;21292;52.416;13.046;2022-12-31T03:35:11;0.55;;;0.55;;
35114;SDS011;21292;52.416;13.046;2022-12-31T03:37:40;0.88;;;0.50;;
35114;SDS011;21292;52.416;13.046;2022-12-31T03:40:10;0.43;;;0.43;;
35114;SDS011;21292;52.416;13.046;2022-12-31T03:42:39;0.75;;;0.40;;
35114;SDS011;21292;52.416;13.046;2022-12-31T03:45:08;0.65;;;0.60;;
35114;SDS011;21292;52.416;13.046;2022-12-31T03:47:37;0.65;;;0.60;;
35114;SDS011;21292;52.416;13.046;2022-12-31T03:50:07;0.50;;;0.50;;
35114;SDS011;21292;52.416;13.046;2022-12-31T03:52:37;0.47;;;0.47;;
35114;SDS011;21292;52.416;13.046;2022-12-31T03:55:05;1.95;;;0.60;;
35114;SDS011;21292;52.416;13.046;2022-12-31T03:57:34;0.57;;;0.50;;
35114;SDS011;21292;52.416;13.046;2022-12-31T04:00:03;0.40;;;0.32;;
35114;SDS011;21292;52.416;13.046;2022-12-31T04:02:32;1.55;;;0.50;;
35114;SDS011;21292;52.416;13.046;2022-12-31T04:05:00;0.40;;;0.40;;
35114;SDS011;21292;52.416;13.046;2022-12-31T04:07:29;0.43;;;0.43;;
35114;SDS011;21292;52.416;13.046;2022-12-31T04:09:57;1.70;;;0.70;;
35114;SDS011;21292;52.416;13.046;2022-12-31T04:12:26;0.80;;;0.80;;
35114;SDS011;21292;52.416;13.046;2022-12-31T04:14:54;0.60;;;0.60;;
35114;SDS011;21292;52.416;13.046;2022-12-31T04:17:21;0.90;;;0.52;;
35114;SDS011;21292;52.416;13.046;2022-12-31T04:19:50;0.68;;;0.60;;
35114;SDS011;21292;52.416;13.046;2022-12-31T04:22:18;0.55;;;0.50;;
35114;SDS011;21292;52.416;13.046;2022-12-31T04:24:47;0.70;;;0.70;;
35114;SDS011;21292;52.416;13.046;2022-12-31T04:27:15;0.43;;;0.43;;
35114;SDS011;21292;52.416;13.046;2022-12-31T04:29:43;0.73;;;0.60;;
35114;SDS011;21292;52.416;13.046;2022-12-31T04:32:11;0.57;;;0.57;;
35114;SDS011;21292;52.416;13.046;2022-12-31T04:34:39;0.47;;;0.47;;
35114;SDS011;21292;52.416;13.046;2022-12-31T04:37:07;0.30;;;0.30;;
35114;SDS011;21292;52.416;13.046;2022-12-31T04:39:35;0.30;;;0.30;;
35114;SDS011;21292;52.416;13.046;2022-12-31T04:42:05;0.50;;;0.50;;
35114;SDS011;21292;52.416;13.046;2022-12-31T04:44:33;0.50;;;0.50;;
35114;SDS011;21292;52.416;13.046;2022-12-31T04:47:01;0.55;;;0.45;;
35114;SDS011;21292;52.416;13.046;2022-12-31T04:49:30;0.93;;;0.45;;
35114;SDS011;21292;52.416;13.046;2022-12-31T04:51:58;0.47;;;0.47;;
35114;SDS011;21292;52.416;13.046;2022-12-31T04:54:26;0.98;;;0.60;;
35114;SDS011;21292;52.416;13.046;2022-12-31T04:56:54;0.65;;;0.65;;
35114;SDS011;21292;52.416;13.046;2022-12-31T04:59:23;0.60;;;0.60;;
35114;SDS011;21292;52.416;13.046;2022-12-31T05:01:51;0.50;;;0.50;;
35114;SDS011;21292;52.416;13.046;2022-12-31T05:04:20;1.70;;;0.57;;
35114;SDS011;21292;52.416;13.046;2022-12-31T05:06:48;1.02;;;0.95;;
35114;SDS011;21292;52.416;13.046;2022-12-31T05:09:16;0.95;;;0.70;;
35114;SDS011;21292;52.416;13.046;2022-12-31T05:11:45;0.82;;;0.50;;
35114;SDS011;21292;52.416;13.046;2022-12-31T05:14:13;0.50;;;0.50;;
35114;SDS011;21292;52.416;13.046;2022-12-31T05:16:42;1.02;;;0.60;;
35114;SDS011;21292;52.416;13.046;2022-12-31T05:19:10;0.45;;;0.45;;
35114;SDS011;21292;52.416;13.046;2022-12-31T05:21:38;1.83;;;0.68;;
35114;SDS011;21292;52.416;13.046;2022-12-31T05:24:06;0.68;;;0.60;;
35114;SDS011;21292;52.416;13.046;2022-12-31T05:26:34;0.57;;;0.57;;
35114;SDS011;21292;52.416;13.046;2022-12-31T05:29:03;1.38;;;0.70;;
35114;SDS011;21292;52.416;13.046;2022-12-31T05:31:31;0.80;;;0.80;;
35114;SDS011;21292;52.416;13.046;2022-12-31T05:34:00;0.98;;;0.90;;
35114;SDS011;21292;52.416;13.046;2022-12-31T05:36:28;0.90;;;0.90;;
35114;SDS011;21292;52.416;13.046;2022-12-31T05:38:56;1.27;;;1.17;;
35114;SDS011;21292;52.416;13.046;2022-12-31T05:41:24;1.17;;;1.05;;
35114;SDS011;21292;52.416;13.046;2022-12-31T05:43:52;1.08;;;0.98;;
35114;SDS011;21292;52.416;13.046;2022-12-31T05:46:20;0.85;;;0.85;;
35114;SDS011;21292;52.416;13.046;2022-12-31T05:48:48;0.82;;;0.80;;
35114;SDS011;21292;52.416;13.046;2022-12-31T05:51:18;1.80;;;0.98;;
35114;SDS011;21292;52.416;13.046;2022-12-31T05:53:46;1.02;;;1.02;;
35114;SDS011;21292;52.416;13.046;2022-12-31T05:56:14;3.25;;;0.93;;
35114;SDS011;21292;52.416;13.046;2022-12-31T05:58:43;1.55;;;0.77;;
35114;SDS011;21292;52.416;13.046;2022-12-31T06:01:11;0.88;;;0.88;;
35114;SDS011;21292;52.416;13.046;2022-12-31T06:03:39;0.80;;;0.80;;
35114;SDS011;21292;52.416;13.046;2022-12-31T06:06:08;0.95;;;0.77;;
35114;SDS011;21292;52.416;13.046;2022-12-31T06:08:37;1.70;;;1.02;;
35114;SDS011;21292;52.416;13.046;2022-12-31T06:11:05;0.93;;;0.70;;
35114;SDS011;21292;52.416;13.046;2022-12-31T06:13:33;2.88;;;0.80;;
35114;SDS011;21292;52.416;13.046;2022-12-31T06:16:03;0.60;;;0.60;;
35114;SDS011;21292;52.416;13.046;2022-12-31T06:18:32;2.78;;;0.73;;
35114;SDS011;21292;52.416;13.046;2022-12-31T06:21:00;0.80;;;0.80;;
35114;SDS011;21292;52.416;13.046;2022-12-31T06:23:28;0.75;;;0.75;;
35114;SDS011;21292;52.416;13.046;2022-12-31T06:25:59;1.00;;;0.70;;
35114;SDS011;21292;52.416;13.046;2022-12-31T06:28:28;0.50;;;0.50;;
35114;SDS011;21292;52.416;13.046;2022-12-31T06:30:57;0.50;;;0.50;;
35114;SDS011;21292;52.416;13.046;2022-12-31T06:33:26;0.85;;;0.50;;
35114;SDS011;21292;52.416;13.046;2022-12-31T06:35:54;0.80;;;0.55;;
35114;SDS011;21292;52.416;13.046;2022-12-31T06:38:23;0.50;;;0.50;;
35114;SDS011;21292;52.416;13.046;2022-12-31T06:40:52;0.40;;;0.40;;
35114;SDS011;21292;52.416;13.046;2022-12-31T06:43:21;0.55;;;0.50;;
35114;SDS011;21292;52.416;13.046;2022-12-31T06:45:49;0.60;;;0.60;;
35114;SDS011;21292;52.416;13.046;2022-12-31T06:48:17;0.60;;;0.52;;
35114;SDS011;21292;52.416;13.046;2022-12-31T06:50:45;1.85;;;0.50;;
35114;SDS011;21292;52.416;13.046;2022-12-31T06:53:13;1.70;;;0.55;;
35114;SDS011;21292;52.416;13.046;2022-12-31T06:55:41;0.68;;;0.43;;
35114;SDS011;21292;52.416;13.046;2022-12-31T06:58:10;0.30;;;0.30;;
35114;SDS011;21292;52.416;13.046;2022-12-31T07:00:40;1.25;;;0.45;;
35114;SDS011;21292;52.416;13.046;2022-12-31T07:03:18;0.50;;;0.50;;
35114;SDS011;21292;52.416;13.046;2022-12-31T07:05:51;0.85;;;0.50;;
35114;SDS011;21292;52.416;13.046;2022-12-31T07:08:23;0.63;;;0.50;;
35114;SDS011;21292;52.416;13.046;2022-12-31T07:11:01;0.40;;;0.40;;
35114;SDS011;21292;52.416;13.046;2022-12-31T07:13:44;0.57;;;0.57;;
35114;SDS011;21292;52.416;13.046;2022-12-31T07:16:20;0.80;;;0.57;;
35114;SDS011;21292;52.416;13.046;2022-12-31T07:18:57;0.73;;;0.30;;
35114;SDS011;21292;52.416;13.046;2022-12-31T07:21:33;0.40;;;0.40;;
35114;SDS011;21292;52.416;13.046;2022-12-31T07:24:04;0.40;;;0.38;;
35114;SDS011;21292;52.416;13.046;2022-12-31T07:26:45;0.85;;;0.52;;
35114;SDS011;21292;52.416;13.046;2022-12-31T07:29:24;0.98;;;0.38;;
35114;SDS011;21292;52.416;13.046;2022-12-31T07:32:02;0.30;;;0.30;;
35114;SDS011;21292;52.416;13.046;2022-12-31T07:34:36;1.05;;;0.40;;
35114;SDS011;21292;52.416;13.046;2022-12-31T07:37:09;0.50;;;0.50;;
35114;SDS011;21292;52.416;13.046;2022-12-31T07:39:40;0.40;;;0.40;;
35114;SDS011;21292;52.416;13.046;2022-12-31T07:42:14;0.93;;;0.60;;
35114;SDS011;21292;52.416;13.046;2022-12-31T07:44:49;1.73;;;0.50;;
35114;SDS011;21292;52.416;13.046;2022-12-31T07:47:25;0.95;;;0.60;;
35114;SDS011;21292;52.416;13.046;2022-12-31T07:49:54;0.50;;;0.40;;
35114;SDS011;21292;52.416;13.046;2022-12-31T07:52:23;0.40;;;0.40;;
35114;SDS011;21292;52.416;13.046;2022-12-31T07:54:51;0.70;;;0.40;;
35114;SDS011;21292;52.416;13.046;2022-12-31T07:57:19;0.52;;;0.32;;
35114;SDS011;21292;52.416;13.046;2022-12-31T07:59:53;0.80;;;0.60;;
35114;SDS011;21292;52.416;13.046;2022-12-31T08:02:34;0.40;;;0.40;;
35114;SDS011;21292;52.416;13.046;2022-12-31T08:05:15;0.50;;;0.50;;
35114;SDS011;21292;52.416;13.046;2022-12-31T08:07:47;0.45;;;0.40;;
35114;SDS011;21292;52.416;13.046;2022-12-31T08:10:20;4.90;;;0.57;;
35114;SDS011;21292;52.416;13.046;2022-12-31T08:12:54;3.17;;;0.50;;
35114;SDS011;21292;52.416;13.046;2022-12-31T08:15:27;0.63;;;0.63;;
35114;SDS011;21292;52.416;13.046;2022-12-31T08:17:58;1.27;;;0.40;;
35114;SDS011;21292;52.416;13.046;2022-12-31T08:20:26;0.52;;;0.38;;
35114;SDS011;21292;52.416;13.046;2022-12-31T08:23:03;0.40;;;0.38;;
35114;SDS011;21292;52.416;13.046;2022-12-31T08:25:44;0.63;;;0.47;;
35114;SDS011;21292;52.416;13.046;2022-12-31T08:28:28;2.10;;;0.47;;
35114;SDS011;21292;52.416;13.046;2022-12-31T08:31:03;0.80;;;0.80;;
35114;SDS011;21292;52.416;13.046;2022-12-31T08:33:47;0.50;;;0.50;;
35114;SDS011;21292;52.416;13.046;2022-12-31T08:36:20;0.55;;;0.40;;
35114;SDS011;21292;52.416;13.046;2022-12-31T08:38:54;0.50;;;0.50;;
35114;SDS011;21292;52.416;13.046;2022-12-31T08:41:27;0.30;;;0.30;;
35114;SDS011;21292;52.416;13.046;2022-12-31T08:46:43;1.05;;;0.60;;
35114;SDS011;21292;52.416;13.046;2022-12-31T08:49:17;0.63;;;0.50;;
35114;SDS011;21292;52.416;13.046;2022-12-31T08:51:45;1.33;;;0.50;;
35114;SDS011;21292;52.416;13.046;2022-12-31T08:54:14;1.83;;;0.77;;
35114;SDS011;21292;52.416;13.046;2022-12-31T08:56:43;0.55;;;0.47;;
35114;SDS011;21292;52.416;13.046;2022-12-31T08:59:23;0.50;;;0.50;;
35114;SDS011;21292;52.416;13.046;2022-12-31T09:02:03;0.90;;;0.60;;
35114;SDS011;21292;52.416;13.046;2022-12-31T09:04:49;1.42;;;0.80;;
35114;SDS011;21292;52.416;13.046;2022-12-31T09:07:26;0.90;;;0.52;;
35114;SDS011;21292;52.416;13.046;2022-12-31T09:09:58;0.60;;;0.60;;
35114;SDS011;21292;52.416;13.046;2022-12-31T09:12:31;1.13;;;0.80;;
35114;SDS011;21292;52.416;13.046;2022-12-31T09:15:05;1.52;;;0.55;;
35114;SDS011;21292;52.416;13.046;2022-12-31T09:17:41;1.27;;;0.50;;
35114;SDS011;21292;52.416;13.046;2022-12-31T09:20:16;0.80;;;0.80;;
35114;SDS011;21292;52.416;13.046;2022-12-31T09:22:50;1.20;;;0.40;;
35114;SDS011;21292;52.416;13.046;2022-12-31T09:25:19;3.38;;;0.75;;
35114;SDS011;21292;52.416;13.046;2022-12-31T09:27:51;0.88;;;0.52;;
35114;SDS011;21292;52.416;13.046;2022-12-31T09:30:25;3.50;;;0.57;;
35114;SDS011;21292;52.416;13.046;2022-12-31T09:32:57;0.73;;;0.57;;
35114;SDS011;21292;52.416;13.046;2022-12-31T09:35:31;1.02;;;0.40;;
35114;SDS011;21292;52.416;13.046;2022-12-31T09:38:03;0.80;;;0.68;;
35114;SDS011;21292;52.416;13.046;2022-12-31T09:40:43;0.82;;;0.50;;
35114;SDS011;21292;52.416;13.046;2022-12-31T09:43:20;3.13;;;0.68;;
35114;SDS011;21292;52.416;13.046;2022-12-31T09:46:03;1.08;;;0.77;;
35114;SDS011;21292;52.416;13.046;2022-12-31T09:48:44;0.50;;;0.50;;
35114;SDS011;21292;52.416;13.046;2022-12-31T09:51:31;0.75;;;0.68;;
35114;SDS011;21292;52.416;13.046;2022-12-31T09:54:07;0.43;;;0.40;;
35114;SDS011;21292;52.416;13.046;2022-12-31T09:56:42;1.13;;;0.63;;
35114;SDS011;21292;52.416;13.046;2022-12-31T09:59:20;3.40;;;0.55;;
35114;SDS011;21292;52.416;13.046;2022-12-31T10:01:52;1.83;;;0.50;;
35114;SDS011;21292;52.416;13.046;2022-12-31T10:04:28;0.40;;;0.40;;
35114;SDS011;21292;52.416;13.046;2022-12-31T10:07:06;0.45;;;0.43;;
35114;SDS011;21292;52.416;13.046;2022-12-31T10:09:50;1.75;;;0.70;;
35114;SDS011;21292;52.416;13.046;2022-12-31T10:12:29;0.55;;;0.55;;
35114;SDS011;21292;52.416;13.046;2022-12-31T10:18:00;0.82;;;0.73;;
35114;SDS011;21292;52.416;13.046;2022-12-31T10:20:44;3.47;;;0.50;;
35114;SDS011;21292;52.416;13.046;2022-12-31T10:23:20;0.40;;;0.40;;
35114;SDS011;21292;52.416;13.046;2022-12-31T10:26:03;0.75;;;0.40;;
35114;SDS011;21292;52.416;13.046;2022-12-31T10:28:53;2.00;;;0.63;;
35114;SDS011;21292;52.416;13.046;2022-12-31T10:31:31;2.75;;;0.50;;
35114;SDS011;21292;52.416;13.046;2022-12-31T10:34:14;0.93;;;0.55;;
35114;SDS011;21292;52.416;13.046;2022-12-31T10:36:53;2.50;;;0.50;;
35114;SDS011;21292;52.416;13.046;2022-12-31T10:39:26;1.75;;;0.63;;
35114;SDS011;21292;52.416;13.046;2022-12-31T10:42:12;6.00;;;0.80;;
35114;SDS011;21292;52.416;13.046;2022-12-31T10:45:13;0.60;;;0.60;;
35114;SDS011;21292;52.416;13.046;2022-12-31T10:48:19;1.67;;;0.82;;
35114;SDS011;21292;52.416;13.046;2022-12-31T10:51:00;1.02;;;0.50;;
35114;SDS011;21292;52.416;13.046;2022-12-31T10:54:01;4.43;;;0.70;;
35114;SDS011;21292;52.416;13.046;2022-12-31T10:59:45;1.27;;;0.70;;
35114;SDS011;21292;52.416;13.046;2022-12-31T11:02:31;1.58;;;0.52;;
35114;SDS011;21292;52.416;13.046;2022-12-31T11:05:22;4.03;;;0.82;;
35114;SDS011;21292;52.416;13.046;2022-12-31T11:10:47;1.00;;;0.83;;
35114;SDS011;21292;52.416;13.046;2022-12-31T11:13:41;0.82;;;0.70;;
35114;SDS011;21292;52.416;13.046;2022-12-31T11:16:43;2.17;;;0.60;;
35114;SDS011;21292;52.416;13.046;2022-12-31T11:19:20;1.92;;;0.88;;
35114;SDS011;21292;52.416;13.046;2022-12-31T11:21:57;1.85;;;0.70;;
35114;SDS011;21292;52.416;13.046;2022-12-31T11:24:34;5.22;;;0.88;;
35114;SDS011;21292;52.416;13.046;2022-12-31T11:27:12;5.00;;;0.85;;
35114;SDS011;21292;52.416;13.046;2022-12-31T11:29:51;2.60;;;0.60;;
35114;SDS011;21292;52.416;13.046;2022-12-31T11:32:31;0.77;;;0.60;;
35114;SDS011;21292;52.416;13.046;2022-12-31T11:35:11;0.80;;;0.70;;
35114;SDS011;21292;52.416;13.046;2022-12-31T11:37:57;1.15;;;0.60;;
35114;SDS011;21292;52.416;13.046;2022-12-31T11:40:35;2.53;;;0.88;;
35114;SDS011;21292;52.416;13.046;2022-12-31T11:43:10;1.33;;;0.43;;
35114;SDS011;21292;52.416;13.046;2022-12-31T11:48:34;2.30;;;0.60;;
35114;SDS011;21292;52.416;13.046;2022-12-31T11:51:08;1.73;;;0.70;;
35114;SDS011;21292;52.416;13.046;2022-12-31T11:54:07;2.38;;;0.80;;
35114;SDS011;21292;52.416;13.046;2022-12-31T11:56:49;1.45;;;0.70;;
35114;SDS011;21292;52.416;13.046;2022-12-31T11:59:20;1.48;;;0.60;;
35114;SDS011;21292;52.416;13.046;2022-12-31T12:01:51;2.75;;;0.60;;
35114;SDS011;21292;52.416;13.046;2022-12-31T12:04:22;5.38;;;0.68;;
35114;SDS011;21292;52.416;13.046;2022-12-31T12:06:50;0.82;;;0.63;;
35114;SDS011;21292;52.416;13.046;2022-12-31T12:09:21;1.35;;;0.85;;
35114;SDS011;21292;52.416;13.046;2022-12-31T12:11:57;1.55;;;0.70;;
35114;SDS011;21292;52.416;13.046;2022-12-31T12:14:29;4.28;;;0.70;;
35114;SDS011;21292;52.416;13.046;2022-12-31T12:17:00;1.10;;;0.90;;
35114;SDS011;21292;52.416;13.046;2022-12-31T12:19:32;1.80;;;1.00;;
35114;SDS011;21292;52.416;13.046;2022-12-31T12:22:08;2.97;;;0.80;;
35114;SDS011;21292;52.416;13.046;2022-12-31T12:24:37;2.47;;;0.70;;
35114;SDS011;21292;52.416;13.046;2022-12-31T12:27:18;0.88;;;0.70;;
35114;SDS011;21292;52.416;13.046;2022-12-31T12:29:47;4.13;;;0.90;;
35114;SDS011;21292;52.416;13.046;2022-12-31T12:32:18;5.35;;;1.00;;
35114;SDS011;21292;52.416;13.046;2022-12-31T12:34:50;2.80;;;1.20;;
35114;SDS011;21292;52.416;13.046;2022-12-31T12:37:27;1.08;;;0.70;;
35114;SDS011;21292;52.416;13.046;2022-12-31T12:40:01;1.88;;;0.82;;
35114;SDS011;21292;52.416;13.046;2022-12-31T12:42:32;1.45;;;0.70;;
35114;SDS011;21292;52.416;13.046;2022-12-31T12:45:03;1.45;;;0.80;;
35114;SDS011;21292;52.416;13.046;2022-12-31T12:47:33;2.85;;;0.77;;
35114;SDS011;21292;52.416;13.046;2022-12-31T12:50:03;1.20;;;0.70;;
35114;SDS011;21292;52.416;13.046;2022-12-31T12:52:39;1.00;;;0.55;;
35114;SDS011;21292;52.416;13.046;2022-12-31T12:55:26;1.10;;;0.75;;
35114;SDS011;21292;52.416;13.046;2022-12-31T12:58:03;5.50;;;1.20;;
35114;SDS011;21292;52.416;13.046;2022-12-31T13:00:45;3.13;;;0.75;;
35114;SDS011;21292;52.416;13.046;2022-12-31T13:03:23;2.15;;;0.77;;
35114;SDS011;21292;52.416;13.046;2022-12-31T13:06:34;1.08;;;0.70;;
35114;SDS011;21292;52.416;13.046;2022-12-31T13:09:16;2.88;;;0.70;;
35114;SDS011;21292;52.416;13.046;2022-12-31T13:11:55;4.53;;;1.50;;
35114;SDS011;21292;52.416;13.046;2022-12-31T13:14:35;2.30;;;1.75;;
35114;SDS011;21292;52.416;13.046;2022-12-31T13:17:11;0.80;;;0.80;;
35114;SDS011;21292;52.416;13.046;2022-12-31T13:19:55;1.30;;;0.77;;
35114;SDS011;21292;52.416;13.046;2022-12-31T13:22:28;5.47;;;0.80;;
35114;SDS011;21292;52.416;13.046;2022-12-31T13:25:02;0.90;;;0.70;;
35114;SDS011;21292;52.416;13.046;2022-12-31T13:27:35;1.85;;;0.60;;
35114;SDS011;21292;52.416;13.046;2022-12-31T13:30:11;6.30;;;1.27;;
35114;SDS011;21292;52.416;13.046;2022-12-31T13:32:43;1.45;;;0.50;;
35114;SDS011;21292;52.416;13.046;2022-12-31T13:35:20;1.85;;;0.85;;
35114;SDS011;21292;52.416;13.046;2022-12-31T13:37:52;0.80;;;0.60;;
35114;SDS011;21292;52.416;13.046;2022-12-31T13:40:34;0.98;;;0.73;;
35114;SDS011;21292;52.416;13.046;2022-12-31T13:43:11;0.63;;;0.60;;
35114;SDS011;21292;52.416;13.046;2022-12-31T13:45:43;1.92;;;0.80;;
35114;SDS011;21292;52.416;13.046;2022-12-31T13:48:27;1.00;;;0.70;;
35114;SDS011;21292;52.416;13.046;2022-12-31T13:50:59;0.85;;;0.85;;
35114;SDS011;21292;52.416;13.046;2022-12-31T13:53:31;1.75;;;0.90;;
35114;SDS011;21292;52.416;13.046;2022-12-31T13:56:03;3.72;;;0.77;;
35114;SDS011;21292;52.416;13.046;2022-12-31T13:58:33;1.23;;;0.77;;
35114;SDS011;21292;52.416;13.046;2022-12-31T14:01:05;1.63;;;1.10;;
35114;SDS011;21292;52.416;13.046;2022-12-31T14:03:37;2.30;;;0.80;;
35114;SDS011;21292;52.416;13.046;2022-12-31T14:06:10;1.25;;;0.73;;
35114;SDS011;21292;52.416;13.046;2022-12-31T14:08:44;1.52;;;0.70;;
35114;SDS011;21292;52.416;13.046;2022-12-31T14:11:12;1.08;;;0.68;;
35114;SDS011;21292;52.416;13.046;2022-12-31T14:13:51;1.08;;;0.75;;
35114;SDS011;21292;52.416;13.046;2022-12-31T14:16:27;5.28;;;0.98;;
35114;SDS011;21292;52.416;13.046;2022-12-31T14:19:04;1.67;;;0.90;;
35114;SDS011;21292;52.416;13.046;2022-12-31T14:21:38;1.88;;;0.88;;
35114;SDS011;21292;52.416;13.046;2022-12-31T14:24:12;2.38;;;0.77;;
35114;SDS011;21292;52.416;13.046;2022-12-31T14:26:42;3.42;;;0.60;;
35114;SDS011;21292;52.416;13.046;2022-12-31T14:29:16;4.13;;;0.60;;
35114;SDS011;21292;52.416;13.046;2022-12-31T14:32:08;1.58;;;0.82;;
35114;SDS011;21292;52.416;13.046;2022-12-31T14:34:51;2.25;;;0.73;;
35114;SDS011;21292;52.416;13.046;2022-12-31T14:37:26;1.10;;;0.90;;
35114;SDS011;21292;52.416;13.046;2022-12-31T14:39:59;2.00;;;0.98;;
35114;SDS011;21292;52.416;13.046;2022-12-31T14:42:34;0.98;;;0.80;;
35114;SDS011;21292;52.416;13.046;2022-12-31T14:45:12;3.38;;;0.90;;
35114;SDS011;21292;52.416;13.046;2022-12-31T14:48:01;1.35;;;0.80;;
35114;SDS011;21292;52.416;13.046;2022-12-31T14:50:35;1.08;;;0.60;;
35114;SDS011;21292;52.416;13.046;2022-12-31T14:53:23;2.05;;;0.70;;
35114;SDS011;21292;52.416;13.046;2022-12-31T14:55:56;4.05;;;0.98;;
35114;SDS011;21292;52.416;13.046;2022-12-31T15:00:57;3.85;;;1.13;;
35114;SDS011;21292;52.416;13.046;2022-12-31T15:03:32;3.15;;;1.10;;
35114;SDS011;21292;52.416;13.046;2022-12-31T15:06:14;1.80;;;0.90;;
35114;SDS011;21292;52.416;13.046;2022-12-31T15:08:57;2.28;;;0.80;;
35114;SDS011;21292;52.416;13.046;2022-12-31T15:11:39;3.75;;;1.55;;
35114;SDS011;21292;52.416;13.046;2022-12-31T15:14:21;2.60;;;0.90;;
35114;SDS011;21292;52.416;13.046;2022-12-31T15:17:04;0.70;;;0.70;;
35114;SDS011;21292;52.416;13.046;2022-12-31T15:22:43;3.28;;;1.27;;
35114;SDS011;21292;52.416;13.046;2022-12-31T15:25:23;1.40;;;0.90;;
35114;SDS011;21292;52.416;13.046;2022-12-31T15:27:54;4.63;;;1.48;;
35114;SDS011;21292;52.416;13.046;2022-12-31T15:30:36;4.47;;;1.25;;
35114;SDS011;21292;52.416;13.046;2022-12-31T15:33:07;3.00;;;1.30;;
35114;SDS011;21292;52.416;13.046;2022-12-31T15:35:43;2.53;;;1.10;;
35114;SDS011;21292;52.416;13.046;2022-12-31T15:38:17;2.53;;;1.08;;